Time;durP1;ratioP1;P1;durP2;ratioP2;P2;SDS_P1;SDS_P2;PMS_P1;PMS_P2;Temp;Humidity;BMP_temperature;BMP_pressure;BME280_temperature;BME280_humidity;BME280_pressure;Samples;Min_cycle;Max_cycle;Signal;HPM_P1;HPM_P2
2022/07/02 00:00:19;;;;;;;8.85;2.50;;;15.00;99.90;;;;;;5036154;28;20017;-63
2022/07/02 00:02:49;;;;;;;7.88;3.20;;;15.00;99.90;;;;;;5035346;28;20037;-64
2022/07/02 00:05:21;;;;;;;10.90;2.65;;;14.90;99.90;;;;;;5035521;28;20033;-63
2022/07/02 00:07:47;;;;;;;5.80;1.90;;;14.90;99.90;;;;;;5035625;28;20095;-66
2022/07/02 00:10:13;;;;;;;9.68;2.30;;;14.90;99.90;;;;;;5038904;28;20517;-64
2022/07/02 00:12:40;;;;;;;8.75;2.30;;;14.90;99.90;;;;;;5048393;28;20021;-64
2022/07/02 00:15:07;;;;;;;12.23;2.95;;;14.90;99.90;;;;;;5055284;28;20044;-64
2022/07/02 00:17:33;;;;;;;13.02;2.85;;;14.90;99.90;;;;;;5035752;28;20056;-63
2022/07/02 00:20:01;;;;;;;11.05;3.08;;;14.90;99.90;;;;;;5038608;28;20056;-63
2022/07/02 00:22:28;;;;;;;7.38;2.08;;;14.80;99.90;;;;;;5046800;28;20029;-63
2022/07/02 00:24:53;;;;;;;9.38;2.67;;;14.80;99.90;;;;;;5063441;28;20020;-64
2022/07/02 00:27:19;;;;;;;9.88;2.90;;;14.80;99.90;;;;;;5055225;28;20047;-65
2022/07/02 00:29:59;;;;;;;11.95;2.95;;;14.90;99.90;;;;;;5055053;28;20025;-62
2022/07/02 00:32:33;;;;;;;7.50;2.72;;;14.90;99.90;;;;;;5055055;28;20060;-66
2022/07/02 00:35:02;;;;;;;10.48;2.70;;;14.90;99.90;;;;;;5054363;28;20017;-63
2022/07/02 00:37:28;;;;;;;7.10;2.75;;;14.90;99.90;;;;;;5044337;28;20510;-63
2022/07/02 00:39:55;;;;;;;9.00;2.53;;;14.90;99.90;;;;;;5038345;28;20021;-62
2022/07/02 00:42:22;;;;;;;6.30;2.97;;;14.90;99.90;;;;;;5044442;28;20021;-66
2022/07/02 00:44:49;;;;;;;11.07;2.70;;;14.80;99.90;;;;;;5038797;28;20479;-63
2022/07/02 00:47:16;;;;;;;12.02;2.40;;;14.80;99.90;;;;;;5047318;28;20112;-63
2022/07/02 00:49:41;;;;;;;11.75;2.88;;;14.80;99.90;;;;;;5051519;28;20049;-63
2022/07/02 00:52:08;;;;;;;7.25;2.10;;;14.80;99.90;;;;;;5036165;28;20115;-63
2022/07/02 00:54:35;;;;;;;14.68;4.00;;;14.80;99.90;;;;;;5034367;28;20057;-65
2022/07/02 00:57:04;;;;;;;8.20;2.78;;;14.80;99.90;;;;;;5040099;28;20017;-64
2022/07/02 00:59:31;;;;;;;10.68;2.70;;;14.80;99.90;;;;;;5054181;28;20020;-63
2022/07/02 01:01:57;;;;;;;8.05;2.53;;;14.90;99.90;;;;;;5052938;28;20032;-63
2022/07/02 01:04:29;;;;;;;7.57;2.33;;;14.90;99.90;;;;;;5054480;28;20033;-63
2022/07/02 01:07:14;;;;;;;6.63;2.90;;;14.90;99.90;;;;;;5053925;28;20044;-67
2022/07/02 01:12:27;;;;;;;9.55;2.78;;;14.90;99.90;;;;;;5033914;28;20074;-63
2022/07/02 01:14:54;;;;;;;6.80;1.95;;;14.80;99.90;;;;;;5033838;28;20037;-66
2022/07/02 01:17:21;;;;;;;9.00;2.88;;;14.80;99.90;;;;;;5033468;28;20117;-65
2022/07/02 01:19:48;;;;;;;9.15;2.50;;;14.80;99.90;;;;;;5033942;28;20021;-63
2022/07/02 01:22:23;;;;;;;8.95;3.20;;;14.70;99.90;;;;;;5037171;28;20017;-65
2022/07/02 01:24:50;;;;;;;9.85;2.28;;;14.80;99.90;;;;;;5043216;28;20060;-63
2022/07/02 01:27:17;;;;;;;7.43;2.22;;;14.70;99.90;;;;;;5041044;28;20029;-66
2022/07/02 01:29:43;;;;;;;8.82;2.22;;;14.70;99.90;;;;;;5052735;28;20052;-64
2022/07/02 01:32:09;;;;;;;7.90;2.38;;;14.70;99.90;;;;;;5050966;28;20041;-64
2022/07/02 01:34:38;;;;;;;9.73;2.67;;;14.70;99.90;;;;;;5035809;28;20053;-64
2022/07/02 01:37:09;;;;;;;7.10;2.28;;;14.70;99.90;;;;;;5033657;28;20100;-62
2022/07/02 01:39:36;;;;;;;6.97;1.90;;;14.70;99.90;;;;;;5040674;28;20052;-63
2022/07/02 01:42:02;;;;;;;5.70;2.25;;;14.60;99.90;;;;;;5044672;28;20028;-62
2022/07/02 01:44:27;;;;;;;9.90;2.33;;;14.60;99.90;;;;;;5038345;28;20046;-62
2022/07/02 01:46:53;;;;;;;10.63;2.72;;;14.60;99.90;;;;;;5045942;28;20036;-63
2022/07/02 01:49:18;;;;;;;8.68;2.22;;;14.60;99.90;;;;;;5052500;28;20021;-66
2022/07/02 01:51:44;;;;;;;4.03;1.90;;;14.60;99.90;;;;;;5053088;28;20021;-63
2022/07/02 01:54:10;;;;;;;8.60;2.70;;;14.60;99.90;;;;;;5053328;28;20435;-62
2022/07/02 01:56:36;;;;;;;9.05;2.00;;;14.60;99.90;;;;;;5052988;28;20021;-65
2022/07/02 01:59:02;;;;;;;5.35;1.70;;;14.60;99.90;;;;;;5052129;28;20043;-67
2022/07/02 02:01:28;;;;;;;1.73;1.50;;;14.60;99.90;;;;;;5053053;28;20025;-65
2022/07/02 02:03:53;;;;;;;7.20;1.85;;;14.60;99.90;;;;;;5041281;28;20112;-64
2022/07/02 02:06:19;;;;;;;5.68;1.80;;;14.60;99.90;;;;;;5033138;28;20025;-64
2022/07/02 02:08:44;;;;;;;4.63;1.70;;;14.50;99.90;;;;;;5036872;28;20032;-66
2022/07/02 02:11:11;;;;;;;7.15;1.60;;;14.60;99.90;;;;;;5033467;28;20025;-63
2022/07/02 02:13:36;;;;;;;4.95;1.33;;;14.60;99.90;;;;;;5033017;28;20552;-64
2022/07/02 02:16:02;;;;;;;5.38;1.85;;;14.60;99.90;;;;;;5047251;28;20362;-64
2022/07/02 02:18:27;;;;;;;2.83;1.63;;;14.60;99.90;;;;;;5053117;28;20066;-68
2022/07/02 02:20:53;;;;;;;6.53;1.98;;;14.60;99.90;;;;;;5052607;28;20458;-62
2022/07/02 02:23:18;;;;;;;5.10;1.52;;;14.60;99.90;;;;;;5052722;28;20115;-63
2022/07/02 02:25:44;;;;;;;4.88;1.70;;;14.60;99.90;;;;;;5052591;28;20031;-65
2022/07/02 02:28:09;;;;;;;8.27;2.03;;;14.60;99.90;;;;;;5048045;28;20021;-65
2022/07/02 02:30:35;;;;;;;9.45;2.05;;;14.60;99.90;;;;;;5032562;28;20521;-63
2022/07/02 02:33:01;;;;;;;8.13;1.98;;;14.60;99.90;;;;;;5033544;28;20132;-65
2022/07/02 02:35:26;;;;;;;4.82;1.77;;;14.60;99.90;;;;;;5032656;28;20075;-64
2022/07/02 02:37:52;;;;;;;6.25;2.70;;;14.60;99.90;;;;;;5033288;28;20029;-66
2022/07/02 02:40:17;;;;;;;5.88;2.20;;;14.50;99.90;;;;;;5032496;28;20378;-62
2022/07/02 02:42:43;;;;;;;8.40;2.10;;;14.50;99.90;;;;;;5031023;28;20474;-64
2022/07/02 02:45:08;;;;;;;7.63;2.50;;;14.50;99.90;;;;;;5032922;28;20464;-64
2022/07/02 02:47:34;;;;;;;8.25;2.22;;;14.40;99.90;;;;;;5049187;28;20025;-66
2022/07/02 02:50:00;;;;;;;8.10;2.10;;;14.40;99.90;;;;;;5051862;28;20055;-67
2022/07/02 02:52:25;;;;;;;9.82;2.92;;;14.40;99.90;;;;;;5052565;28;20094;-64
2022/07/02 02:54:51;;;;;;;9.48;1.98;;;14.40;99.90;;;;;;5038938;28;20026;-64
2022/07/02 02:57:16;;;;;;;7.70;1.83;;;14.30;99.90;;;;;;5051955;28;20410;-64
2022/07/02 02:59:42;;;;;;;3.50;1.55;;;14.30;99.90;;;;;;5043503;28;20032;-66
2022/07/02 03:02:08;;;;;;;5.13;1.58;;;14.30;99.90;;;;;;5032327;28;20032;-63
2022/07/02 03:04:33;;;;;;;4.68;1.60;;;14.20;99.90;;;;;;5054189;28;20036;-64
2022/07/02 03:06:59;;;;;;;6.50;1.90;;;14.20;99.90;;;;;;5049609;28;20028;-65
2022/07/02 03:09:25;;;;;;;4.93;1.80;;;14.20;99.90;;;;;;5031244;28;20112;-63
2022/07/02 03:11:50;;;;;;;5.70;2.00;;;14.20;99.90;;;;;;5031967;28;20030;-63
2022/07/02 03:14:16;;;;;;;9.15;2.17;;;14.20;99.90;;;;;;5032740;28;20031;-64
2022/07/02 03:16:41;;;;;;;5.80;1.85;;;14.20;99.90;;;;;;5032504;28;20363;-65
2022/07/02 03:19:07;;;;;;;6.97;2.00;;;14.20;99.90;;;;;;5032638;28;20435;-63
2022/07/02 03:21:33;;;;;;;3.83;1.70;;;14.20;99.90;;;;;;5032491;28;20079;-65
2022/07/02 03:23:58;;;;;;;4.10;1.70;;;14.10;99.90;;;;;;5033077;28;20056;-65
2022/07/02 03:26:24;;;;;;;4.55;1.98;;;14.10;99.90;;;;;;5036796;28;20100;-63
2022/07/02 03:28:50;;;;;;;4.30;1.75;;;14.10;99.90;;;;;;5047369;28;20044;-64
2022/07/02 03:31:15;;;;;;;6.65;2.05;;;14.10;99.90;;;;;;5043040;28;20453;-63
2022/07/02 03:33:41;;;;;;;3.92;1.92;;;14.10;99.90;;;;;;5043356;28;20578;-63
2022/07/02 03:36:06;;;;;;;7.70;1.92;;;14.10;99.90;;;;;;5041546;28;20103;-63
2022/07/02 03:38:32;;;;;;;5.65;2.17;;;14.00;99.90;;;;;;5042484;28;20042;-66
2022/07/02 03:40:57;;;;;;;8.23;2.40;;;14.00;99.90;;;;;;5052416;28;20020;-63
2022/07/02 03:43:23;;;;;;;3.28;1.85;;;14.00;99.90;;;;;;5057482;28;20083;-63
2022/07/02 03:45:48;;;;;;;7.53;2.22;;;14.00;99.90;;;;;;5062311;28;20028;-63
2022/07/02 03:48:14;;;;;;;9.55;2.05;;;14.00;99.90;;;;;;5069318;28;20016;-65
2022/07/02 03:50:42;;;;;;;3.60;1.80;;;14.00;99.90;;;;;;5063213;28;20458;-64
2022/07/02 03:53:08;;;;;;;5.38;1.92;;;14.00;99.90;;;;;;5071148;28;20074;-63
2022/07/02 03:55:34;;;;;;;4.15;1.90;;;14.00;99.90;;;;;;5058774;28;20029;-66
2022/07/02 03:57:59;;;;;;;6.75;2.03;;;14.00;99.90;;;;;;5055851;28;20024;-64
2022/07/02 04:00:25;;;;;;;2.35;1.45;;;14.00;99.90;;;;;;5054279;28;20118;-63
2022/07/02 04:02:50;;;;;;;6.03;2.20;;;14.00;99.90;;;;;;5047995;28;20582;-65
2022/07/02 04:05:16;;;;;;;4.32;1.85;;;14.00;99.90;;;;;;5041566;28;20466;-65
2022/07/02 04:07:41;;;;;;;3.97;1.88;;;14.00;99.90;;;;;;5053423;28;20056;-66
2022/07/02 04:10:07;;;;;;;8.65;2.30;;;14.00;99.90;;;;;;5054419;28;20126;-64
2022/07/02 04:12:33;;;;;;;5.93;2.08;;;14.00;99.90;;;;;;5054676;28;20443;-65
2022/07/02 04:14:59;;;;;;;4.90;2.35;;;14.00;99.90;;;;;;5054404;28;20386;-66
2022/07/02 04:17:25;;;;;;;7.40;1.65;;;14.00;99.90;;;;;;5052891;28;20029;-65
2022/07/02 04:19:51;;;;;;;5.00;1.80;;;14.00;99.90;;;;;;5053515;28;20404;-63
2022/07/02 04:22:16;;;;;;;4.38;1.60;;;14.00;99.90;;;;;;5054263;28;20032;-64
2022/07/02 04:24:42;;;;;;;4.35;1.77;;;14.00;99.90;;;;;;5054681;28;20098;-63
2022/07/02 04:27:07;;;;;;;3.42;1.65;;;14.10;99.90;;;;;;5053882;28;20021;-63
2022/07/02 04:29:33;;;;;;;3.08;1.67;;;14.10;99.90;;;;;;5043449;28;20105;-63
2022/07/02 04:31:58;;;;;;;6.53;2.28;;;14.10;99.90;;;;;;5053713;28;20021;-62
2022/07/02 04:34:24;;;;;;;4.75;2.45;;;14.10;99.90;;;;;;5054565;28;20419;-63
2022/07/02 04:36:49;;;;;;;6.50;2.20;;;14.10;99.90;;;;;;5053767;28;20467;-64
2022/07/02 04:39:15;;;;;;;7.22;2.33;;;14.10;99.90;;;;;;5054382;28;20069;-63
2022/07/02 04:41:40;;;;;;;8.70;2.60;;;14.20;99.90;;;;;;5035703;28;20097;-63
2022/07/02 04:44:07;;;;;;;2.85;1.73;;;14.20;99.90;;;;;;5054180;28;20032;-62
2022/07/02 04:46:33;;;;;;;6.00;1.73;;;14.30;99.90;;;;;;5054320;28;20032;-67
2022/07/02 04:48:58;;;;;;;3.30;2.13;;;14.30;99.90;;;;;;5053785;28;20025;-64
2022/07/02 04:51:24;;;;;;;6.38;1.63;;;14.40;99.90;;;;;;5053590;28;20468;-64
2022/07/02 04:53:49;;;;;;;8.18;2.10;;;14.40;99.90;;;;;;5053732;28;20024;-63
2022/07/02 04:56:15;;;;;;;7.20;2.17;;;14.50;99.90;;;;;;5053841;28;20151;-63
2022/07/02 04:58:41;;;;;;;5.85;1.90;;;14.50;99.90;;;;;;5054200;28;20142;-63
2022/07/02 05:01:06;;;;;;;5.93;1.70;;;14.60;99.90;;;;;;5054516;28;20442;-66
2022/07/02 05:03:32;;;;;;;4.70;1.85;;;14.60;99.90;;;;;;5053961;28;20086;-62
2022/07/02 05:05:58;;;;;;;5.93;1.83;;;14.80;99.90;;;;;;5053239;28;20079;-63
2022/07/02 05:08:26;;;;;;;5.68;2.42;;;14.80;99.90;;;;;;5053951;28;20024;-63
2022/07/02 05:10:53;;;;;;;6.20;2.20;;;14.90;99.90;;;;;;5053667;28;20044;-63
2022/07/02 05:13:20;;;;;;;7.07;2.40;;;15.00;99.90;;;;;;5053452;28;20095;-63
2022/07/02 05:15:46;;;;;;;7.60;2.03;;;15.10;99.90;;;;;;5054195;28;20108;-64
2022/07/02 05:18:12;;;;;;;6.63;2.00;;;15.10;99.90;;;;;;5053236;28;20111;-64
2022/07/02 05:20:37;;;;;;;6.68;1.95;;;15.30;99.90;;;;;;5052476;28;20024;-64
2022/07/02 05:23:03;;;;;;;4.85;2.20;;;15.40;99.90;;;;;;5053059;28;20033;-64
2022/07/02 05:25:28;;;;;;;8.07;2.92;;;15.50;99.90;;;;;;5053800;28;20032;-66
2022/07/02 05:27:54;;;;;;;5.22;2.38;;;15.70;99.90;;;;;;5053505;28;20036;-63
2022/07/02 05:30:20;;;;;;;7.72;2.63;;;15.90;99.90;;;;;;5053101;28;20056;-63
2022/07/02 05:32:45;;;;;;;5.60;2.05;;;16.10;99.90;;;;;;5051839;28;20052;-66
2022/07/02 05:35:11;;;;;;;7.00;2.65;;;16.50;99.90;;;;;;5052737;28;20028;-64
2022/07/02 05:37:36;;;;;;;3.72;2.05;;;17.10;99.90;;;;;;5053556;28;20057;-65
2022/07/02 05:40:03;;;;;;;5.75;1.70;;;17.70;99.90;;;;;;5041231;28;20080;-64
2022/07/02 05:42:28;;;;;;;6.35;1.73;;;18.30;99.90;;;;;;5041109;28;20032;-63
2022/07/02 05:44:54;;;;;;;7.05;2.53;;;18.80;99.90;;;;;;5051327;28;20049;-64
2022/07/02 05:47:19;;;;;;;8.23;2.47;;;19.10;99.90;;;;;;5051381;28;20051;-64
2022/07/02 05:49:45;;;;;;;3.70;1.20;;;19.40;99.90;;;;;;5051449;28;20416;-64
2022/07/02 05:52:11;;;;;;;6.18;2.72;;;19.90;99.90;;;;;;5051600;28;20480;-63
2022/07/02 05:54:36;;;;;;;7.03;2.80;;;20.50;99.90;;;;;;5051957;28;20013;-65
2022/07/02 05:57:02;;;;;;;8.70;3.17;;;20.70;99.90;;;;;;5051835;28;20025;-63
2022/07/02 05:59:28;;;;;;;9.32;2.60;;;21.30;99.90;;;;;;5052427;28;20024;-63
2022/07/02 06:01:53;;;;;;;5.68;1.25;;;21.80;99.90;;;;;;5051664;28;20021;-63
2022/07/02 06:04:19;;;;;;;4.55;1.83;;;21.90;99.90;;;;;;5050874;28;20040;-64
2022/07/02 06:09:29;;;;;;;7.03;1.40;;;22.50;99.90;;;;;;5052249;28;20033;-62
2022/07/02 06:11:54;;;;;;;4.32;1.98;;;23.00;99.80;;;;;;5051728;28;20017;-64
2022/07/02 06:14:20;;;;;;;7.25;2.10;;;23.10;99.40;;;;;;5053128;28;20021;-65
2022/07/02 06:16:45;;;;;;;8.32;2.00;;;23.30;99.10;;;;;;5052682;28;20021;-63
2022/07/02 06:19:11;;;;;;;5.68;2.20;;;23.50;98.60;;;;;;5053086;28;20021;-63
2022/07/02 06:21:37;;;;;;;8.80;1.70;;;23.90;98.30;;;;;;5051377;28;20125;-64
2022/07/02 06:24:03;;;;;;;6.38;2.33;;;24.50;97.20;;;;;;5050288;28;20112;-64
2022/07/02 06:26:28;;;;;;;6.15;2.20;;;24.60;96.80;;;;;;5052409;28;20027;-64
2022/07/02 06:28:54;;;;;;;9.13;2.20;;;24.90;96.40;;;;;;5052614;28;20036;-64
2022/07/02 06:31:19;;;;;;;8.25;3.15;;;25.00;95.90;;;;;;5053194;28;20029;-63
2022/07/02 06:33:45;;;;;;;7.75;1.30;;;24.90;96.00;;;;;;5052155;28;20051;-66
2022/07/02 06:36:14;;;;;;;8.98;1.77;;;24.70;96.00;;;;;;5052460;28;20021;-63
2022/07/02 06:38:41;;;;;;;8.13;2.05;;;24.70;96.20;;;;;;5052401;28;20028;-66
2022/07/02 06:42:18;;;;;;;5.90;1.40;;;24.90;95.90;;;;;;5052474;28;20029;-65
2022/07/02 06:44:01;;;;;;;7.07;1.58;;;25.00;95.30;;;;;;5051176;28;20110;-63
2022/07/02 06:46:26;;;;;;;6.40;1.70;;;25.10;95.40;;;;;;5052756;28;20467;-63
2022/07/02 06:48:52;;;;;;;4.97;1.48;;;25.10;95.20;;;;;;5050732;28;20025;-62
2022/07/02 06:51:18;;;;;;;7.85;2.65;;;25.00;95.40;;;;;;5052775;28;20017;-61
2022/07/02 06:53:46;;;;;;;5.05;1.30;;;25.30;95.20;;;;;;5051535;28;20473;-62
2022/07/02 06:56:12;;;;;;;6.72;1.40;;;25.60;94.50;;;;;;5052346;28;20475;-63
2022/07/02 06:58:37;;;;;;;9.57;1.92;;;25.30;94.80;;;;;;5052096;28;20103;-64
2022/07/02 07:01:03;;;;;;;5.60;1.48;;;25.40;95.00;;;;;;5054124;28;20366;-64
2022/07/02 07:03:28;;;;;;;3.85;1.52;;;25.80;94.40;;;;;;5055717;28;20041;-62
2022/07/02 07:05:54;;;;;;;2.78;0.93;;;26.30;93.90;;;;;;5044137;28;20022;-62
2022/07/02 07:08:20;;;;;;;9.45;2.00;;;26.30;92.80;;;;;;5036333;28;20022;-64
2022/07/02 07:10:45;;;;;;;5.88;1.70;;;26.50;92.80;;;;;;5047548;28;20029;-64
2022/07/02 07:13:11;;;;;;;1.42;1.10;;;26.40;92.00;;;;;;5055405;28;20355;-64
2022/07/02 07:15:36;;;;;;;6.82;1.50;;;26.50;91.50;;;;;;5055491;28;20028;-63
2022/07/02 07:18:02;;;;;;;7.65;1.98;;;26.50;91.80;;;;;;5056121;28;20021;-63
2022/07/02 07:20:29;;;;;;;6.40;1.92;;;26.70;91.30;;;;;;5054787;28;20523;-64
2022/07/02 07:22:55;;;;;;;4.95;1.00;;;27.00;90.80;;;;;;5055844;28;20029;-62
2022/07/02 07:25:22;;;;;;;4.68;1.27;;;27.20;89.90;;;;;;5055613;28;20028;-66
2022/07/02 07:27:48;;;;;;;5.60;0.80;;;27.20;87.80;;;;;;5056475;28;20450;-63
2022/07/02 07:30:14;;;;;;;2.42;1.10;;;27.30;87.60;;;;;;5056211;28;20040;-65
2022/07/02 07:32:41;;;;;;;3.50;1.30;;;27.30;85.60;;;;;;5053523;28;20483;-64
2022/07/02 07:35:07;;;;;;;4.47;1.13;;;27.40;84.40;;;;;;5055358;28;20025;-63
2022/07/02 07:37:35;;;;;;;4.32;0.65;;;27.60;84.40;;;;;;5055394;28;20021;-65
2022/07/02 07:40:02;;;;;;;5.88;1.70;;;27.80;83.60;;;;;;5052673;28;20462;-66
2022/07/02 07:42:28;;;;;;;2.17;1.20;;;27.70;84.90;;;;;;5052676;28;20025;-63
2022/07/02 07:44:54;;;;;;;5.20;1.10;;;27.90;83.30;;;;;;5055659;28;20037;-63
2022/07/02 07:47:19;;;;;;;5.15;0.90;;;28.40;81.80;;;;;;5056117;28;20025;-63
2022/07/02 07:49:45;;;;;;;2.45;0.85;;;28.70;80.70;;;;;;5054716;28;20354;-64
2022/07/02 07:52:11;;;;;;;3.42;0.93;;;28.50;80.50;;;;;;5055771;28;20340;-63
2022/07/02 07:54:37;;;;;;;7.35;1.17;;;28.30;79.10;;;;;;5054038;28;20047;-63
2022/07/02 07:57:03;;;;;;;3.55;0.90;;;27.90;80.30;;;;;;5054923;28;20036;-63
2022/07/02 07:59:29;;;;;;;3.70;0.82;;;27.60;80.30;;;;;;5055546;28;20455;-65
2022/07/02 08:01:55;;;;;;;3.58;0.98;;;27.40;79.70;;;;;;5055382;28;20075;-65
2022/07/02 08:04:20;;;;;;;4.35;1.10;;;27.20;79.60;;;;;;5055536;28;20123;-64
2022/07/02 08:06:46;;;;;;;2.03;1.17;;;27.00;79.80;;;;;;5055708;28;20059;-65
2022/07/02 08:09:12;;;;;;;3.72;0.88;;;26.70;78.60;;;;;;5055625;28;20438;-66
2022/07/02 08:11:37;;;;;;;2.40;0.93;;;26.30;79.00;;;;;;5054678;28;20024;-64
2022/07/02 08:14:04;;;;;;;3.15;0.80;;;26.10;81.00;;;;;;5054776;28;20021;-63
2022/07/02 08:16:30;;;;;;;2.55;0.70;;;26.00;80.60;;;;;;5055371;28;20091;-65
2022/07/02 08:18:56;;;;;;;3.17;0.85;;;25.80;81.10;;;;;;5055326;28;20045;-64
2022/07/02 08:21:22;;;;;;;7.60;1.40;;;25.80;81.50;;;;;;5055711;28;20342;-62
2022/07/02 08:23:47;;;;;;;5.38;1.20;;;25.90;82.60;;;;;;5054898;28;20037;-66
2022/07/02 08:26:13;;;;;;;3.80;0.90;;;26.20;80.50;;;;;;5055382;28;20450;-64
2022/07/02 08:28:39;;;;;;;3.08;1.08;;;26.80;80.90;;;;;;5053418;28;20390;-62
2022/07/02 08:31:04;;;;;;;4.22;1.50;;;27.60;79.20;;;;;;5054508;28;20017;-64
2022/07/02 08:33:30;;;;;;;2.20;0.90;;;28.10;78.30;;;;;;5054059;28;20068;-68
2022/07/02 08:35:56;;;;;;;2.55;1.00;;;28.50;76.40;;;;;;5053576;28;20547;-63
2022/07/02 08:38:22;;;;;;;1.33;0.80;;;28.60;75.10;;;;;;5054318;28;20021;-63
2022/07/02 08:40:48;;;;;;;2.08;0.70;;;29.10;71.60;;;;;;5054117;28;20027;-63
2022/07/02 08:43:15;;;;;;;1.77;0.50;;;29.50;68.50;;;;;;5054680;28;20131;-63
2022/07/02 08:45:42;;;;;;;4.35;0.77;;;29.80;67.20;;;;;;5054466;28;20017;-64
2022/07/02 08:48:09;;;;;;;1.25;0.50;;;30.30;65.40;;;;;;5054750;28;20100;-68
2022/07/02 08:50:36;;;;;;;1.58;0.75;;;30.50;64.30;;;;;;5054620;28;20025;-67
2022/07/02 08:53:04;;;;;;;3.40;1.13;;;30.70;64.60;;;;;;5054807;28;20017;-63
2022/07/02 08:55:32;;;;;;;2.35;1.15;;;31.70;63.80;;;;;;5052942;28;20116;-67
2022/07/02 08:57:58;;;;;;;8.32;1.40;;;32.50;62.40;;;;;;5054360;28;20013;-64
2022/07/02 09:00:24;;;;;;;1.13;0.60;;;33.20;60.10;;;;;;5054667;28;20033;-65
2022/07/02 09:02:53;;;;;;;2.85;0.77;;;32.90;60.40;;;;;;5054737;28;20023;-66
2022/07/02 09:05:20;;;;;;;1.23;0.57;;;32.20;61.20;;;;;;5054585;28;20025;-65
2022/07/02 09:07:47;;;;;;;2.72;1.02;;;31.30;60.90;;;;;;5054319;28;20395;-64
2022/07/02 09:10:17;;;;;;;2.97;0.60;;;30.30;62.10;;;;;;5054336;28;20100;-67
2022/07/02 09:12:43;;;;;;;1.20;0.65;;;30.10;62.30;;;;;;5052540;28;20459;-63
2022/07/02 09:15:10;;;;;;;2.55;0.70;;;30.00;62.00;;;;;;5053865;28;20017;-63
2022/07/02 09:17:38;;;;;;;3.28;0.82;;;29.10;63.00;;;;;;5053837;28;20040;-64
2022/07/02 09:20:05;;;;;;;2.13;0.77;;;28.30;64.50;;;;;;5053193;28;20458;-63
2022/07/02 09:22:37;;;;;;;1.60;0.70;;;27.60;65.50;;;;;;5053098;28;20025;-66
2022/07/02 09:25:18;;;;;;;2.53;1.20;;;27.20;66.60;;;;;;5053576;28;20033;-65
2022/07/02 09:27:55;;;;;;;5.68;1.98;;;26.80;67.20;;;;;;5051502;28;20027;-64
2022/07/02 09:30:21;;;;;;;5.28;1.88;;;26.40;68.20;;;;;;5054138;28;20021;-66
2022/07/02 09:32:47;;;;;;;3.67;1.63;;;25.80;68.80;;;;;;5053101;28;20528;-65
2022/07/02 09:35:18;;;;;;;0.77;0.52;;;25.40;70.10;;;;;;5052637;28;20021;-64
2022/07/02 09:37:43;;;;;;;2.00;1.07;;;26.00;69.40;;;;;;5053252;28;20025;-64
2022/07/02 09:40:10;;;;;;;3.25;1.25;;;26.70;68.20;;;;;;5053533;28;20029;-64
2022/07/02 09:42:35;;;;;;;3.72;1.15;;;26.50;68.40;;;;;;5052992;28;20033;-67
2022/07/02 09:45:03;;;;;;;1.52;0.85;;;26.30;69.00;;;;;;5052390;28;20037;-63
2022/07/02 09:47:34;;;;;;;3.65;1.48;;;26.60;68.80;;;;;;5051963;28;20406;-67
2022/07/02 09:50:04;;;;;;;2.15;1.13;;;26.90;68.60;;;;;;5053659;28;20020;-61
2022/07/02 09:52:30;;;;;;;2.10;0.80;;;26.50;69.00;;;;;;5053067;28;20518;-63
2022/07/02 09:54:55;;;;;;;4.60;0.90;;;26.40;69.80;;;;;;5052871;28;20104;-67
2022/07/02 09:57:21;;;;;;;5.85;1.02;;;26.10;70.60;;;;;;5052716;28;20110;-65
2022/07/02 09:59:47;;;;;;;3.20;1.25;;;25.90;72.00;;;;;;5052749;28;20063;-65
2022/07/02 10:02:23;;;;;;;4.20;1.35;;;25.70;72.90;;;;;;5052868;28;20044;-63
2022/07/02 10:04:51;;;;;;;3.30;0.93;;;25.40;73.30;;;;;;5052329;28;20037;-63
2022/07/02 10:07:18;;;;;;;4.22;0.90;;;25.10;74.00;;;;;;5053112;28;20111;-66
2022/07/02 10:09:44;;;;;;;3.38;0.80;;;25.00;74.30;;;;;;5052262;28;20032;-65
2022/07/02 10:12:10;;;;;;;4.78;1.23;;;25.10;74.60;;;;;;5051543;28;20304;-64
2022/07/02 10:14:37;;;;;;;3.92;0.70;;;25.30;74.10;;;;;;5057209;28;20021;-64
2022/07/02 10:17:03;;;;;;;3.33;0.80;;;25.60;74.00;;;;;;5060096;28;20087;-64
2022/07/02 10:19:31;;;;;;;4.18;1.02;;;25.70;73.80;;;;;;5072724;28;20039;-64
2022/07/02 10:21:58;;;;;;;5.95;1.20;;;25.70;74.70;;;;;;5066856;28;20051;-66
2022/07/02 10:24:25;;;;;;;3.03;1.33;;;26.00;74.90;;;;;;5073140;28;20111;-64
2022/07/02 10:26:52;;;;;;;2.95;1.27;;;26.30;73.00;;;;;;5055980;28;20025;-63
2022/07/02 10:29:18;;;;;;;5.47;1.88;;;26.40;73.60;;;;;;5054207;28;20132;-64
2022/07/02 10:31:52;;;;;;;3.70;1.13;;;26.40;74.20;;;;;;5052553;28;20047;-64
2022/07/02 10:34:36;;;;;;;6.47;1.80;;;26.20;74.30;;;;;;5052248;28;20383;-64
2022/07/02 10:37:02;;;;;;;2.30;0.73;;;26.10;74.70;;;;;;5051907;28;20024;-62
2022/07/02 10:39:38;;;;;;;1.13;0.65;;;26.20;74.30;;;;;;5051243;28;20017;-65
2022/07/02 10:42:04;;;;;;;3.03;0.88;;;26.20;73.30;;;;;;5050081;28;20106;-64
2022/07/02 10:44:39;;;;;;;3.03;1.35;;;26.10;73.90;;;;;;5050756;28;20067;-63
2022/07/02 10:47:19;;;;;;;4.13;1.23;;;26.00;74.70;;;;;;5049742;28;20028;-63
2022/07/02 10:49:44;;;;;;;6.82;1.20;;;26.00;72.80;;;;;;5053065;28;20049;-64
2022/07/02 10:52:10;;;;;;;2.67;1.05;;;26.80;73.10;;;;;;5052079;28;20074;-65
2022/07/02 10:54:35;;;;;;;5.43;1.75;;;27.90;71.70;;;;;;5055963;28;20189;-64
2022/07/02 10:57:01;;;;;;;4.72;1.05;;;29.10;70.20;;;;;;5056232;28;20017;-64
2022/07/02 10:59:36;;;;;;;4.85;1.50;;;30.10;69.30;;;;;;5057551;28;20494;-64
2022/07/02 11:02:12;;;;;;;4.53;1.00;;;31.00;67.60;;;;;;5057409;28;20017;-64
2022/07/02 11:04:38;;;;;;;2.45;0.77;;;31.50;65.90;;;;;;5060458;28;20114;-64
2022/07/02 11:07:09;;;;;;;2.28;1.00;;;31.60;65.40;;;;;;5058055;28;20455;-64
2022/07/02 11:10:01;;;;;;;2.13;0.73;;;32.00;65.20;;;;;;5060419;28;20029;-65
2022/07/02 11:12:43;;;;;;;1.98;0.75;;;33.40;62.40;;;;;;5052579;28;20045;-67
2022/07/02 11:15:25;;;;;;;2.80;1.15;;;33.90;61.10;;;;;;5056404;28;20020;-64
2022/07/02 11:17:51;;;;;;;2.97;0.93;;;34.30;60.50;;;;;;5053956;28;20090;-65
2022/07/02 11:20:27;;;;;;;2.88;0.70;;;35.00;60.60;;;;;;5057469;28;20089;-66
2022/07/02 11:22:53;;;;;;;2.63;0.80;;;35.10;59.60;;;;;;5058123;28;20017;-64
2022/07/02 11:25:19;;;;;;;2.72;1.20;;;34.30;58.90;;;;;;5055599;28;20028;-64
2022/07/02 11:27:59;;;;;;;3.15;1.10;;;33.30;59.20;;;;;;5055614;28;20028;-63
2022/07/02 11:30:30;;;;;;;1.20;0.90;;;32.50;60.40;;;;;;5051372;28;20032;-64
2022/07/02 11:32:55;;;;;;;6.40;2.03;;;31.90;61.50;;;;;;5047292;28;20033;-64
2022/07/02 11:35:21;;;;;;;5.30;0.88;;;31.30;61.70;;;;;;5043334;28;20025;-63
2022/07/02 11:37:47;;;;;;;3.53;0.77;;;30.60;62.80;;;;;;5050339;28;20474;-64
2022/07/02 11:40:23;;;;;;;2.28;0.98;;;30.10;63.70;;;;;;5034849;28;20025;-69
2022/07/02 11:42:49;;;;;;;1.98;0.85;;;29.90;63.50;;;;;;5032519;28;20025;-65
2022/07/02 11:45:15;;;;;;;2.20;0.80;;;29.60;64.20;;;;;;5032636;28;20029;-63
2022/07/02 11:47:48;;;;;;;1.58;0.73;;;29.20;64.70;;;;;;5033955;28;20080;-66
2022/07/02 11:50:14;;;;;;;4.38;1.60;;;28.80;64.80;;;;;;5036186;28;20036;-65
2022/07/02 11:52:41;;;;;;;5.47;1.20;;;28.50;65.60;;;;;;5035435;28;20025;-67
2022/07/02 11:55:13;;;;;;;2.72;0.80;;;28.40;65.60;;;;;;5036468;28;20029;-67
2022/07/02 11:57:39;;;;;;;3.65;0.95;;;28.20;66.00;;;;;;5070318;28;20025;-64
2022/07/02 12:00:05;;;;;;;3.47;0.93;;;28.40;66.30;;;;;;5075897;28;20039;-64
2022/07/02 12:02:38;;;;;;;4.05;1.05;;;28.80;66.50;;;;;;5068275;28;20032;-64
2022/07/02 12:05:19;;;;;;;2.40;0.75;;;29.40;65.90;;;;;;5055096;28;20048;-64
2022/07/02 12:07:46;;;;;;;1.88;0.70;;;29.50;65.40;;;;;;5055742;28;20017;-68
2022/07/02 12:10:13;;;;;;;3.35;1.40;;;29.20;66.60;;;;;;5055521;28;20036;-63
2022/07/02 12:12:39;;;;;;;4.82;1.40;;;29.80;66.70;;;;;;5054689;28;20039;-64
2022/07/02 12:15:06;;;;;;;3.38;1.08;;;30.50;64.40;;;;;;5055543;28;20451;-64
2022/07/02 12:17:35;;;;;;;2.10;0.93;;;30.70;64.30;;;;;;5055227;28;20017;-65
2022/07/02 12:20:05;;;;;;;3.80;0.90;;;31.00;63.90;;;;;;5055365;28;20466;-64
2022/07/02 12:22:30;;;;;;;4.13;1.40;;;31.20;63.10;;;;;;5055404;28;20032;-65
2022/07/02 12:24:56;;;;;;;6.72;1.45;;;31.60;63.30;;;;;;5055255;28;20036;-66
2022/07/02 12:27:25;;;;;;;1.80;1.00;;;31.90;63.00;;;;;;5049500;28;20053;-68
2022/07/02 12:29:54;;;;;;;3.40;0.80;;;31.90;62.80;;;;;;5064825;28;20032;-68
2022/07/02 12:32:32;;;;;;;1.42;0.90;;;31.60;63.50;;;;;;5054937;28;20068;-66
2022/07/02 12:35:03;;;;;;;1.95;1.02;;;31.30;63.10;;;;;;5053642;28;20047;-65
2022/07/02 12:37:34;;;;;;;4.17;0.90;;;31.00;63.60;;;;;;5055285;28;20151;-65
2022/07/02 12:40:13;;;;;;;3.00;0.97;;;30.60;64.10;;;;;;5055042;28;20470;-64
2022/07/02 12:42:46;;;;;;;1.80;0.90;;;30.20;64.00;;;;;;5054657;28;20024;-64
2022/07/02 12:45:22;;;;;;;3.33;0.80;;;30.20;64.70;;;;;;5054704;28;20052;-65
2022/07/02 12:48:06;;;;;;;2.70;0.60;;;31.00;63.90;;;;;;5047380;28;20112;-65
2022/07/02 12:50:43;;;;;;;5.22;0.70;;;32.00;61.70;;;;;;5054318;28;20017;-65